sensor_id;sensor_type;location;lat;lon;timestamp;temperature;humidity
35593;DHT22;64447;52.140;5.602;2022-10-31T00:01:58;15.70;78.00
35593;DHT22;64447;52.140;5.602;2022-10-31T00:04:24;15.70;78.10
35593;DHT22;64447;52.140;5.602;2022-10-31T00:06:49;15.60;78.50
35593;DHT22;64447;52.140;5.602;2022-10-31T00:09:15;15.70;78.30
35593;DHT22;64447;52.140;5.602;2022-10-31T00:11:41;15.70;78.30
35593;DHT22;64447;52.140;5.602;2022-10-31T00:14:06;15.60;78.20
35593;DHT22;64447;52.140;5.602;2022-10-31T00:16:32;15.60;78.10
35593;DHT22;64447;52.140;5.602;2022-10-31T00:19:01;15.60;78.20
35593;DHT22;64447;52.140;5.602;2022-10-31T00:21:27;15.60;78.30
35593;DHT22;64447;52.140;5.602;2022-10-31T00:23:53;15.50;78.30
35593;DHT22;64447;52.140;5.602;2022-10-31T00:26:19;15.50;78.30
35593;DHT22;64447;52.140;5.602;2022-10-31T00:28:45;15.50;78.20
35593;DHT22;64447;52.140;5.602;2022-10-31T00:31:12;15.50;78.40
35593;DHT22;64447;52.140;5.602;2022-10-31T00:33:39;15.50;78.60
35593;DHT22;64447;52.140;5.602;2022-10-31T00:36:06;15.40;78.70
35593;DHT22;64447;52.140;5.602;2022-10-31T00:38:32;15.40;78.80
35593;DHT22;64447;52.140;5.602;2022-10-31T00:40:58;15.40;79.00
35593;DHT22;64447;52.140;5.602;2022-10-31T00:43:24;15.40;78.80
35593;DHT22;64447;52.140;5.602;2022-10-31T00:45:49;15.40;78.80
35593;DHT22;64447;52.140;5.602;2022-10-31T00:48:15;15.50;79.10
35593;DHT22;64447;52.140;5.602;2022-10-31T00:50:41;15.30;78.80
35593;DHT22;64447;52.140;5.602;2022-10-31T00:53:07;15.40;78.80
35593;DHT22;64447;52.140;5.602;2022-10-31T00:55:33;15.40;78.80
35593;DHT22;64447;52.140;5.602;2022-10-31T00:57:58;15.40;78.70
35593;DHT22;64447;52.140;5.602;2022-10-31T01:00:24;15.30;78.70
35593;DHT22;64447;52.140;5.602;2022-10-31T01:02:50;15.30;78.60
35593;DHT22;64447;52.140;5.602;2022-10-31T01:05:16;15.30;78.90
35593;DHT22;64447;52.140;5.602;2022-10-31T01:07:41;15.30;79.10
35593;DHT22;64447;52.140;5.602;2022-10-31T01:10:08;15.30;78.90
35593;DHT22;64447;52.140;5.602;2022-10-31T01:12:48;15.30;79.00
35593;DHT22;64447;52.140;5.602;2022-10-31T01:15:19;15.30;79.00
35593;DHT22;64447;52.140;5.602;2022-10-31T01:17:45;15.30;78.80
35593;DHT22;64447;52.140;5.602;2022-10-31T01:20:12;15.30;79.00
35593;DHT22;64447;52.140;5.602;2022-10-31T01:22:38;15.30;78.90
35593;DHT22;64447;52.140;5.602;2022-10-31T01:25:04;15.30;78.70
35593;DHT22;64447;52.140;5.602;2022-10-31T01:27:31;15.20;78.70
35593;DHT22;64447;52.140;5.602;2022-10-31T01:29:57;15.20;78.60
35593;DHT22;64447;52.140;5.602;2022-10-31T01:32:23;15.20;78.80
35593;DHT22;64447;52.140;5.602;2022-10-31T01:34:48;15.20;79.00
35593;DHT22;64447;52.140;5.602;2022-10-31T01:37:14;15.00;79.80
35593;DHT22;64447;52.140;5.602;2022-10-31T01:39:40;15.00;79.60
35593;DHT22;64447;52.140;5.602;2022-10-31T01:42:05;15.10;79.50
35593;DHT22;64447;52.140;5.602;2022-10-31T01:47:08;15.10;79.50
35593;DHT22;64447;52.140;5.602;2022-10-31T01:49:49;15.00;79.50
35593;DHT22;64447;52.140;5.602;2022-10-31T01:52:38;15.00;79.30
35593;DHT22;64447;52.140;5.602;2022-10-31T01:55:09;15.00;79.10
35593;DHT22;64447;52.140;5.602;2022-10-31T01:57:39;15.80;79.30
35593;DHT22;64447;52.140;5.602;2022-10-31T02:00:09;14.90;78.70
35593;DHT22;64447;52.140;5.602;2022-10-31T02:02:35;14.90;78.70
35593;DHT22;64447;52.140;5.602;2022-10-31T02:05:04;15.20;78.60
35593;DHT22;64447;52.140;5.602;2022-10-31T02:07:39;14.80;78.60
35593;DHT22;64447;52.140;5.602;2022-10-31T02:10:07;14.70;78.50
35593;DHT22;64447;52.140;5.602;2022-10-31T02:12:34;14.70;78.40
35593;DHT22;64447;52.140;5.602;2022-10-31T02:15:01;14.80;78.60
35593;DHT22;64447;52.140;5.602;2022-10-31T02:17:29;14.70;78.40
35593;DHT22;64447;52.140;5.602;2022-10-31T02:22:48;14.60;78.20
35593;DHT22;64447;52.140;5.602;2022-10-31T02:25:40;14.60;78.10
35593;DHT22;64447;52.140;5.602;2022-10-31T02:31:01;14.30;79.20
35593;DHT22;64447;52.140;5.602;2022-10-31T02:33:44;14.30;79.10
35593;DHT22;64447;52.140;5.602;2022-10-31T02:36:42;14.20;79.00
35593;DHT22;64447;52.140;5.602;2022-10-31T02:39:25;14.20;78.90
35593;DHT22;64447;52.140;5.602;2022-10-31T02:42:07;14.20;78.80
35593;DHT22;64447;52.140;5.602;2022-10-31T02:47:12;14.10;78.60
35593;DHT22;64447;52.140;5.602;2022-10-31T02:50:06;14.90;79.00
35593;DHT22;64447;52.140;5.602;2022-10-31T02:52:35;14.10;78.40
35593;DHT22;64447;52.140;5.602;2022-10-31T02:58:09;13.90;78.10
35593;DHT22;64447;52.140;5.602;2022-10-31T03:06:23;13.90;77.90
35593;DHT22;64447;52.140;5.602;2022-10-31T03:11:31;14.10;78.10
35593;DHT22;64447;52.140;5.602;2022-10-31T03:14:12;13.80;77.80
35593;DHT22;64447;52.140;5.602;2022-10-31T03:16:45;13.70;77.70
35593;DHT22;64447;52.140;5.602;2022-10-31T03:19:16;13.80;78.00
35593;DHT22;64447;52.140;5.602;2022-10-31T03:22:00;14.50;78.60
35593;DHT22;64447;52.140;5.602;2022-10-31T03:24:32;13.60;77.90
35593;DHT22;64447;52.140;5.602;2022-10-31T03:27:00;13.60;77.70
35593;DHT22;64447;52.140;5.602;2022-10-31T03:29:29;13.60;77.80
35593;DHT22;64447;52.140;5.602;2022-10-31T03:32:00;13.50;77.70
35593;DHT22;64447;52.140;5.602;2022-10-31T03:34:28;13.50;78.10
35593;DHT22;64447;52.140;5.602;2022-10-31T03:36:57;13.40;78.00
35593;DHT22;64447;52.140;5.602;2022-10-31T03:39:24;13.50;78.00
35593;DHT22;64447;52.140;5.602;2022-10-31T03:42:06;13.40;77.70
35593;DHT22;64447;52.140;5.602;2022-10-31T03:44:34;14.00;77.90
35593;DHT22;64447;52.140;5.602;2022-10-31T03:47:01;13.40;77.70
35593;DHT22;64447;52.140;5.602;2022-10-31T03:49:29;13.40;77.80
35593;DHT22;64447;52.140;5.602;2022-10-31T03:51:59;13.30;77.60
35593;DHT22;64447;52.140;5.602;2022-10-31T04:04:39;13.10;77.50
35593;DHT22;64447;52.140;5.602;2022-10-31T04:07:06;13.40;78.40
35593;DHT22;64447;52.140;5.602;2022-10-31T04:09:35;13.10;78.30
35593;DHT22;64447;52.140;5.602;2022-10-31T04:12:04;13.00;78.10
35593;DHT22;64447;52.140;5.602;2022-10-31T04:14:35;13.00;78.20
35593;DHT22;64447;52.140;5.602;2022-10-31T04:17:03;13.00;78.30
35593;DHT22;64447;52.140;5.602;2022-10-31T04:19:32;13.00;78.20
35593;DHT22;64447;52.140;5.602;2022-10-31T04:21:58;13.70;78.70
35593;DHT22;64447;52.140;5.602;2022-10-31T04:24:23;13.00;78.50
35593;DHT22;64447;52.140;5.602;2022-10-31T04:26:49;12.90;78.40
35593;DHT22;64447;52.140;5.602;2022-10-31T04:29:14;12.80;78.60
35593;DHT22;64447;52.140;5.602;2022-10-31T04:31:40;12.80;78.50
35593;DHT22;64447;52.140;5.602;2022-10-31T04:34:06;12.80;78.50
35593;DHT22;64447;52.140;5.602;2022-10-31T04:36:32;12.80;78.30
35593;DHT22;64447;52.140;5.602;2022-10-31T04:38:58;13.20;78.50
35593;DHT22;64447;52.140;5.602;2022-10-31T04:41:23;12.80;78.00
35593;DHT22;64447;52.140;5.602;2022-10-31T04:43:49;12.70;78.50
35593;DHT22;64447;52.140;5.602;2022-10-31T04:46:15;12.70;78.70
35593;DHT22;64447;52.140;5.602;2022-10-31T04:48:40;12.70;78.90
35593;DHT22;64447;52.140;5.602;2022-10-31T04:51:06;12.90;78.80
35593;DHT22;64447;52.140;5.602;2022-10-31T04:53:32;12.60;78.50
35593;DHT22;64447;52.140;5.602;2022-10-31T04:55:58;12.60;78.40
35593;DHT22;64447;52.140;5.602;2022-10-31T04:58:25;12.60;78.20
35593;DHT22;64447;52.140;5.602;2022-10-31T05:00:54;12.60;78.50
35593;DHT22;64447;52.140;5.602;2022-10-31T05:03:20;12.60;78.70
35593;DHT22;64447;52.140;5.602;2022-10-31T05:05:46;12.50;78.40
35593;DHT22;64447;52.140;5.602;2022-10-31T05:08:12;12.50;78.40
35593;DHT22;64447;52.140;5.602;2022-10-31T05:10:38;12.50;78.50
35593;DHT22;64447;52.140;5.602;2022-10-31T05:13:04;12.50;78.40
35593;DHT22;64447;52.140;5.602;2022-10-31T05:15:30;12.50;78.30
35593;DHT22;64447;52.140;5.602;2022-10-31T05:17:56;12.50;78.40
35593;DHT22;64447;52.140;5.602;2022-10-31T05:20:24;12.50;78.30
35593;DHT22;64447;52.140;5.602;2022-10-31T05:22:52;13.10;78.70
35593;DHT22;64447;52.140;5.602;2022-10-31T05:25:18;13.20;78.80
35593;DHT22;64447;52.140;5.602;2022-10-31T05:27:46;12.80;78.80
35593;DHT22;64447;52.140;5.602;2022-10-31T05:30:15;12.40;78.90
35593;DHT22;64447;52.140;5.602;2022-10-31T05:32:43;12.40;78.70
35593;DHT22;64447;52.140;5.602;2022-10-31T05:38:30;12.30;78.60
35593;DHT22;64447;52.140;5.602;2022-10-31T05:40:56;12.30;78.80
35593;DHT22;64447;52.140;5.602;2022-10-31T05:43:28;12.20;79.00
35593;DHT22;64447;52.140;5.602;2022-10-31T05:45:55;12.10;78.70
35593;DHT22;64447;52.140;5.602;2022-10-31T05:48:21;12.20;78.80
35593;DHT22;64447;52.140;5.602;2022-10-31T05:50:48;12.20;78.60
35593;DHT22;64447;52.140;5.602;2022-10-31T05:53:13;12.20;78.60
35593;DHT22;64447;52.140;5.602;2022-10-31T05:55:39;12.10;78.60
35593;DHT22;64447;52.140;5.602;2022-10-31T05:58:08;12.30;78.80
35593;DHT22;64447;52.140;5.602;2022-10-31T06:00:34;11.40;78.30
35593;DHT22;64447;52.140;5.602;2022-10-31T06:03:05;12.00;78.70
35593;DHT22;64447;52.140;5.602;2022-10-31T06:05:32;12.00;78.70
35593;DHT22;64447;52.140;5.602;2022-10-31T06:07:58;12.00;78.90
35593;DHT22;64447;52.140;5.602;2022-10-31T06:10:24;12.00;78.90
35593;DHT22;64447;52.140;5.602;2022-10-31T08:46:41;13.30;88.10
35593;DHT22;64447;52.140;5.602;2022-10-31T08:49:07;13.50;88.50
35593;DHT22;64447;52.140;5.602;2022-10-31T08:51:32;13.60;88.20
35593;DHT22;64447;52.140;5.602;2022-10-31T08:53:58;13.70;88.20
35593;DHT22;64447;52.140;5.602;2022-10-31T08:56:24;13.70;88.20
35593;DHT22;64447;52.140;5.602;2022-10-31T08:58:49;13.70;88.60
35593;DHT22;64447;52.140;5.602;2022-10-31T09:01:16;13.80;89.20
35593;DHT22;64447;52.140;5.602;2022-10-31T09:03:42;13.80;89.60
35593;DHT22;64447;52.140;5.602;2022-10-31T09:09:29;13.60;90.60
35593;DHT22;64447;52.140;5.602;2022-10-31T09:11:55;13.60;90.90
35593;DHT22;64447;52.140;5.602;2022-10-31T09:14:20;14.30;91.00
35593;DHT22;64447;52.140;5.602;2022-10-31T09:16:46;13.90;90.60
35593;DHT22;64447;52.140;5.602;2022-10-31T09:19:11;14.20;90.60
35593;DHT22;64447;52.140;5.602;2022-10-31T09:21:37;14.20;90.40
35593;DHT22;64447;52.140;5.602;2022-10-31T09:24:03;14.30;90.20
35593;DHT22;64447;52.140;5.602;2022-10-31T09:26:28;14.40;90.10
35593;DHT22;64447;52.140;5.602;2022-10-31T09:28:54;14.20;90.30
35593;DHT22;64447;52.140;5.602;2022-10-31T09:31:19;14.40;90.30
35593;DHT22;64447;52.140;5.602;2022-10-31T09:33:45;14.30;90.10
35593;DHT22;64447;52.140;5.602;2022-10-31T09:36:11;14.30;90.50
35593;DHT22;64447;52.140;5.602;2022-10-31T09:38:36;14.40;90.30
35593;DHT22;64447;52.140;5.602;2022-10-31T09:41:24;14.40;90.10
35593;DHT22;64447;52.140;5.602;2022-10-31T09:44:03;14.50;90.20
35593;DHT22;64447;52.140;5.602;2022-10-31T09:47:09;14.50;90.00
35593;DHT22;64447;52.140;5.602;2022-10-31T09:52:38;14.60;90.10
35593;DHT22;64447;52.140;5.602;2022-10-31T09:55:19;14.70;90.00
35593;DHT22;64447;52.140;5.602;2022-10-31T09:57:47;14.70;90.00
35593;DHT22;64447;52.140;5.602;2022-10-31T10:00:21;14.60;90.10
35593;DHT22;64447;52.140;5.602;2022-10-31T10:02:53;14.70;90.10
35593;DHT22;64447;52.140;5.602;2022-10-31T10:05:32;14.90;90.00
35593;DHT22;64447;52.140;5.602;2022-10-31T10:08:09;14.90;89.90
35593;DHT22;64447;52.140;5.602;2022-10-31T10:19:11;15.40;88.70
35593;DHT22;64447;52.140;5.602;2022-10-31T10:27:41;15.70;88.40
35593;DHT22;64447;52.140;5.602;2022-10-31T10:30:21;15.70;87.90
35593;DHT22;64447;52.140;5.602;2022-10-31T10:32:50;15.90;87.50
35593;DHT22;64447;52.140;5.602;2022-10-31T10:35:29;15.90;86.60
35593;DHT22;64447;52.140;5.602;2022-10-31T10:38:04;15.80;86.60
35593;DHT22;64447;52.140;5.602;2022-10-31T10:40:34;15.80;86.90
35593;DHT22;64447;52.140;5.602;2022-10-31T10:45:55;15.90;86.70
35593;DHT22;64447;52.140;5.602;2022-10-31T10:49:31;15.70;86.40
35593;DHT22;64447;52.140;5.602;2022-10-31T10:59:54;15.70;87.20
35593;DHT22;64447;52.140;5.602;2022-10-31T11:02:27;15.70;87.60
35593;DHT22;64447;52.140;5.602;2022-10-31T11:04:58;15.80;86.90
35593;DHT22;64447;52.140;5.602;2022-10-31T11:07:24;15.70;86.80
35593;DHT22;64447;52.140;5.602;2022-10-31T11:09:49;15.80;87.00
35593;DHT22;64447;52.140;5.602;2022-10-31T11:12:28;15.80;86.40
35593;DHT22;64447;52.140;5.602;2022-10-31T11:14:57;16.00;86.40
35593;DHT22;64447;52.140;5.602;2022-10-31T11:17:36;16.00;86.30
35593;DHT22;64447;52.140;5.602;2022-10-31T11:22:29;15.90;86.00
35593;DHT22;64447;52.140;5.602;2022-10-31T11:24:54;15.90;86.40
35593;DHT22;64447;52.140;5.602;2022-10-31T11:27:22;15.80;86.40
35593;DHT22;64447;52.140;5.602;2022-10-31T11:29:49;15.90;87.00
35593;DHT22;64447;52.140;5.602;2022-10-31T11:34:48;16.00;86.20
35593;DHT22;64447;52.140;5.602;2022-10-31T11:37:24;16.10;86.40
35593;DHT22;64447;52.140;5.602;2022-10-31T11:39:57;16.20;86.00
35593;DHT22;64447;52.140;5.602;2022-10-31T11:42:26;16.30;85.30
35593;DHT22;64447;52.140;5.602;2022-10-31T11:44:54;16.20;85.00
35593;DHT22;64447;52.140;5.602;2022-10-31T11:47:27;16.30;85.40
35593;DHT22;64447;52.140;5.602;2022-10-31T11:49:54;16.30;84.60
35593;DHT22;64447;52.140;5.602;2022-10-31T11:52:28;16.20;84.20
35593;DHT22;64447;52.140;5.602;2022-10-31T11:55:03;16.30;83.80
35593;DHT22;64447;52.140;5.602;2022-10-31T11:57:57;16.50;83.80
35593;DHT22;64447;52.140;5.602;2022-10-31T12:00:30;16.30;83.70
35593;DHT22;64447;52.140;5.602;2022-10-31T12:05:38;16.40;83.60
35593;DHT22;64447;52.140;5.602;2022-10-31T12:08:06;16.60;83.70
35593;DHT22;64447;52.140;5.602;2022-10-31T12:10:45;16.50;83.30
35593;DHT22;64447;52.140;5.602;2022-10-31T12:13:35;16.30;84.30
35593;DHT22;64447;52.140;5.602;2022-10-31T12:16:12;16.30;84.90
35593;DHT22;64447;52.140;5.602;2022-10-31T12:30:26;16.70;84.10
35593;DHT22;64447;52.140;5.602;2022-10-31T12:33:07;16.60;84.30
35593;DHT22;64447;52.140;5.602;2022-10-31T12:35:44;16.50;84.60
35593;DHT22;64447;52.140;5.602;2022-10-31T12:41:00;16.80;84.50
35593;DHT22;64447;52.140;5.602;2022-10-31T12:46:16;17.00;84.40
35593;DHT22;64447;52.140;5.602;2022-10-31T12:57:22;17.00;85.00
35593;DHT22;64447;52.140;5.602;2022-10-31T13:00:10;17.10;84.50
35593;DHT22;64447;52.140;5.602;2022-10-31T13:02:42;17.20;83.80
35593;DHT22;64447;52.140;5.602;2022-10-31T13:08:04;17.10;84.20
35593;DHT22;64447;52.140;5.602;2022-10-31T13:10:42;17.00;84.20
35593;DHT22;64447;52.140;5.602;2022-10-31T13:16:00;17.20;83.70
35593;DHT22;64447;52.140;5.602;2022-10-31T13:18:39;17.20;83.60
35593;DHT22;64447;52.140;5.602;2022-10-31T13:21:15;17.20;83.60
35593;DHT22;64447;52.140;5.602;2022-10-31T13:23:44;17.20;83.70
35593;DHT22;64447;52.140;5.602;2022-10-31T13:26:13;17.20;83.50
35593;DHT22;64447;52.140;5.602;2022-10-31T13:28:48;17.20;83.50
35593;DHT22;64447;52.140;5.602;2022-10-31T13:31:15;17.20;83.10
35593;DHT22;64447;52.140;5.602;2022-10-31T13:33:57;17.30;83.10
35593;DHT22;64447;52.140;5.602;2022-10-31T13:36:48;17.30;83.20
35593;DHT22;64447;52.140;5.602;2022-10-31T13:39:46;17.40;83.40
35593;DHT22;64447;52.140;5.602;2022-10-31T13:42:28;17.50;82.80
35593;DHT22;64447;52.140;5.602;2022-10-31T13:44:55;17.60;82.40
35593;DHT22;64447;52.140;5.602;2022-10-31T13:47:31;17.60;82.10
35593;DHT22;64447;52.140;5.602;2022-10-31T13:50:27;17.50;82.60
35593;DHT22;64447;52.140;5.602;2022-10-31T13:53:10;17.50;82.40
35593;DHT22;64447;52.140;5.602;2022-10-31T13:55:45;17.20;82.80
35593;DHT22;64447;52.140;5.602;2022-10-31T13:58:23;17.40;82.90
35593;DHT22;64447;52.140;5.602;2022-10-31T14:01:19;17.20;82.70
35593;DHT22;64447;52.140;5.602;2022-10-31T14:03:55;17.30;83.20
35593;DHT22;64447;52.140;5.602;2022-10-31T14:06:23;17.50;82.90
35593;DHT22;64447;52.140;5.602;2022-10-31T14:08:59;17.30;82.80
35593;DHT22;64447;52.140;5.602;2022-10-31T14:11:26;17.40;83.20
35593;DHT22;64447;52.140;5.602;2022-10-31T14:13:54;17.30;83.50
35593;DHT22;64447;52.140;5.602;2022-10-31T14:16:24;17.20;83.20
35593;DHT22;64447;52.140;5.602;2022-10-31T14:19:18;16.90;84.10
35593;DHT22;64447;52.140;5.602;2022-10-31T14:21:47;17.10;84.20
35593;DHT22;64447;52.140;5.602;2022-10-31T14:24:32;17.20;84.80
35593;DHT22;64447;52.140;5.602;2022-10-31T14:29:45;17.10;84.20
35593;DHT22;64447;52.140;5.602;2022-10-31T14:34:42;17.30;83.80
35593;DHT22;64447;52.140;5.602;2022-10-31T14:37:17;17.40;83.50
35593;DHT22;64447;52.140;5.602;2022-10-31T14:39:49;17.60;82.80
35593;DHT22;64447;52.140;5.602;2022-10-31T14:53:14;17.20;83.60
35593;DHT22;64447;52.140;5.602;2022-10-31T14:55:48;17.20;83.90
35593;DHT22;64447;52.140;5.602;2022-10-31T14:58:19;17.20;83.40
35593;DHT22;64447;52.140;5.602;2022-10-31T15:00:45;17.40;83.20
35593;DHT22;64447;52.140;5.602;2022-10-31T15:03:15;17.40;83.00
35593;DHT22;64447;52.140;5.602;2022-10-31T15:05:50;17.50;82.90
35593;DHT22;64447;52.140;5.602;2022-10-31T15:08:46;17.40;82.60
35593;DHT22;64447;52.140;5.602;2022-10-31T15:11:14;17.50;82.50
35593;DHT22;64447;52.140;5.602;2022-10-31T15:13:48;17.60;82.10
35593;DHT22;64447;52.140;5.602;2022-10-31T15:16:18;17.80;81.90
35593;DHT22;64447;52.140;5.602;2022-10-31T15:19:06;17.70;81.60
35593;DHT22;64447;52.140;5.602;2022-10-31T15:21:33;17.70;82.90
35593;DHT22;64447;52.140;5.602;2022-10-31T15:24:01;17.70;81.80
35593;DHT22;64447;52.140;5.602;2022-10-31T15:26:35;17.70;81.40
35593;DHT22;64447;52.140;5.602;2022-10-31T15:29:13;17.80;81.50
35593;DHT22;64447;52.140;5.602;2022-10-31T15:31:48;17.80;81.40
35593;DHT22;64447;52.140;5.602;2022-10-31T15:34:19;17.80;81.20
35593;DHT22;64447;52.140;5.602;2022-10-31T15:36:48;17.80;81.00
35593;DHT22;64447;52.140;5.602;2022-10-31T15:39:20;17.90;80.90
35593;DHT22;64447;52.140;5.602;2022-10-31T15:44:21;17.80;80.80
35593;DHT22;64447;52.140;5.602;2022-10-31T15:46:58;17.50;81.30
35593;DHT22;64447;52.140;5.602;2022-10-31T15:49:46;17.60;81.30
35593;DHT22;64447;52.140;5.602;2022-10-31T15:52:37;17.30;81.70
35593;DHT22;64447;52.140;5.602;2022-10-31T15:57:45;17.20;82.10
35593;DHT22;64447;52.140;5.602;2022-10-31T16:00:28;17.00;82.10
35593;DHT22;64447;52.140;5.602;2022-10-31T16:05:44;16.80;83.50
35593;DHT22;64447;52.140;5.602;2022-10-31T16:10:51;16.50;84.80
35593;DHT22;64447;52.140;5.602;2022-10-31T16:13:19;16.40;84.80
35593;DHT22;64447;52.140;5.602;2022-10-31T16:15:49;16.50;84.70
35593;DHT22;64447;52.140;5.602;2022-10-31T16:18:15;16.70;84.10
35593;DHT22;64447;52.140;5.602;2022-10-31T16:20:41;16.80;83.50
35593;DHT22;64447;52.140;5.602;2022-10-31T16:23:16;17.00;82.90
35593;DHT22;64447;52.140;5.602;2022-10-31T16:25:42;17.00;82.70
35593;DHT22;64447;52.140;5.602;2022-10-31T16:28:22;17.10;82.60
35593;DHT22;64447;52.140;5.602;2022-10-31T16:30:58;17.10;82.30
35593;DHT22;64447;52.140;5.602;2022-10-31T16:33:32;17.10;82.40
35593;DHT22;64447;52.140;5.602;2022-10-31T16:38:57;17.10;82.50
35593;DHT22;64447;52.140;5.602;2022-10-31T16:41:23;16.90;82.90
35593;DHT22;64447;52.140;5.602;2022-10-31T16:43:50;16.90;83.10
35593;DHT22;64447;52.140;5.602;2022-10-31T16:46:20;17.00;82.70
35593;DHT22;64447;52.140;5.602;2022-10-31T16:48:47;17.10;82.40
35593;DHT22;64447;52.140;5.602;2022-10-31T16:51:12;17.10;82.30
35593;DHT22;64447;52.140;5.602;2022-10-31T16:53:38;16.90;82.70
35593;DHT22;64447;52.140;5.602;2022-10-31T16:56:04;17.00;82.60
35593;DHT22;64447;52.140;5.602;2022-10-31T16:58:32;17.00;82.30
35593;DHT22;64447;52.140;5.602;2022-10-31T17:01:02;16.80;82.90
35593;DHT22;64447;52.140;5.602;2022-10-31T17:03:29;16.80;82.90
35593;DHT22;64447;52.140;5.602;2022-10-31T17:05:55;16.60;83.80
35593;DHT22;64447;52.140;5.602;2022-10-31T17:08:21;16.60;84.40
35593;DHT22;64447;52.140;5.602;2022-10-31T17:10:51;16.70;84.00
35593;DHT22;64447;52.140;5.602;2022-10-31T17:13:20;16.40;84.80
35593;DHT22;64447;52.140;5.602;2022-10-31T17:15:49;16.40;85.30
35593;DHT22;64447;52.140;5.602;2022-10-31T17:18:16;16.40;85.20
35593;DHT22;64447;52.140;5.602;2022-10-31T17:20:43;16.60;84.70
35593;DHT22;64447;52.140;5.602;2022-10-31T17:23:10;16.40;85.20
35593;DHT22;64447;52.140;5.602;2022-10-31T17:25:36;16.50;85.40
35593;DHT22;64447;52.140;5.602;2022-10-31T17:28:02;16.60;84.70
35593;DHT22;64447;52.140;5.602;2022-10-31T17:30:28;16.70;84.20
35593;DHT22;64447;52.140;5.602;2022-10-31T17:32:54;16.60;84.70
35593;DHT22;64447;52.140;5.602;2022-10-31T17:35:20;16.60;84.60
35593;DHT22;64447;52.140;5.602;2022-10-31T17:37:46;16.50;85.40
35593;DHT22;64447;52.140;5.602;2022-10-31T17:40:15;16.50;85.00
35593;DHT22;64447;52.140;5.602;2022-10-31T17:42:41;16.50;85.10
35593;DHT22;64447;52.140;5.602;2022-10-31T17:45:07;16.40;85.10
35593;DHT22;64447;52.140;5.602;2022-10-31T17:47:33;16.30;85.80
35593;DHT22;64447;52.140;5.602;2022-10-31T17:49:59;16.40;85.50
35593;DHT22;64447;52.140;5.602;2022-10-31T17:52:25;16.20;86.30
35593;DHT22;64447;52.140;5.602;2022-10-31T17:54:51;16.30;86.20
35593;DHT22;64447;52.140;5.602;2022-10-31T17:57:16;16.20;86.30
35593;DHT22;64447;52.140;5.602;2022-10-31T17:59:42;16.20;86.20
35593;DHT22;64447;52.140;5.602;2022-10-31T18:02:09;16.40;85.30
35593;DHT22;64447;52.140;5.602;2022-10-31T18:04:35;16.50;84.60
35593;DHT22;64447;52.140;5.602;2022-10-31T18:07:00;16.60;84.10
35593;DHT22;64447;52.140;5.602;2022-10-31T18:09:26;16.60;84.20
35593;DHT22;64447;52.140;5.602;2022-10-31T18:11:52;16.70;83.10
35593;DHT22;64447;52.140;5.602;2022-10-31T18:14:18;16.80;82.70
35593;DHT22;64447;52.140;5.602;2022-10-31T18:16:44;16.80;82.50
35593;DHT22;64447;52.140;5.602;2022-10-31T18:19:12;16.70;82.70
35593;DHT22;64447;52.140;5.602;2022-10-31T18:21:38;16.50;83.20
35593;DHT22;64447;52.140;5.602;2022-10-31T18:24:04;16.50;83.40
35593;DHT22;64447;52.140;5.602;2022-10-31T18:26:31;16.20;84.50
35593;DHT22;64447;52.140;5.602;2022-10-31T18:28:56;16.00;85.10
35593;DHT22;64447;52.140;5.602;2022-10-31T18:31:22;16.10;85.20
35593;DHT22;64447;52.140;5.602;2022-10-31T18:33:50;16.00;85.20
35593;DHT22;64447;52.140;5.602;2022-10-31T18:36:16;16.00;85.40
35593;DHT22;64447;52.140;5.602;2022-10-31T18:42:03;16.10;84.70
35593;DHT22;64447;52.140;5.602;2022-10-31T18:44:29;16.30;84.00
35593;DHT22;64447;52.140;5.602;2022-10-31T18:46:55;16.30;83.80
35593;DHT22;64447;52.140;5.602;2022-10-31T18:49:21;16.30;83.70
35593;DHT22;64447;52.140;5.602;2022-10-31T18:51:51;16.30;83.40
35593;DHT22;64447;52.140;5.602;2022-10-31T18:54:17;16.30;83.00
35593;DHT22;64447;52.140;5.602;2022-10-31T18:56:42;16.40;82.80
35593;DHT22;64447;52.140;5.602;2022-10-31T18:59:08;16.40;82.30
35593;DHT22;64447;52.140;5.602;2022-10-31T19:01:35;16.40;82.50
35593;DHT22;64447;52.140;5.602;2022-10-31T19:04:00;16.40;82.10
35593;DHT22;64447;52.140;5.602;2022-10-31T19:06:26;16.40;81.80
35593;DHT22;64447;52.140;5.602;2022-10-31T19:12:14;16.30;81.50
35593;DHT22;64447;52.140;5.602;2022-10-31T19:14:40;16.00;82.20
35593;DHT22;64447;52.140;5.602;2022-10-31T19:17:06;16.10;82.60
35593;DHT22;64447;52.140;5.602;2022-10-31T19:19:31;16.00;82.80
35593;DHT22;64447;52.140;5.602;2022-10-31T19:21:57;15.90;82.80
35593;DHT22;64447;52.140;5.602;2022-10-31T19:24:23;15.80;82.90
35593;DHT22;64447;52.140;5.602;2022-10-31T19:26:48;15.80;83.40
35593;DHT22;64447;52.140;5.602;2022-10-31T19:29:14;15.80;83.20
35593;DHT22;64447;52.140;5.602;2022-10-31T19:31:40;15.50;84.00
35593;DHT22;64447;52.140;5.602;2022-10-31T19:34:05;15.50;84.30
35593;DHT22;64447;52.140;5.602;2022-10-31T19:36:31;15.50;84.20
35593;DHT22;64447;52.140;5.602;2022-10-31T19:42:18;15.40;84.20
35593;DHT22;64447;52.140;5.602;2022-10-31T19:44:44;15.60;83.80
35593;DHT22;64447;52.140;5.602;2022-10-31T19:47:09;15.50;83.70
35593;DHT22;64447;52.140;5.602;2022-10-31T19:49:35;15.40;83.70
35593;DHT22;64447;52.140;5.602;2022-10-31T19:52:01;15.60;83.60
35593;DHT22;64447;52.140;5.602;2022-10-31T19:54:26;15.40;83.70
35593;DHT22;64447;52.140;5.602;2022-10-31T19:56:52;15.40;83.20
35593;DHT22;64447;52.140;5.602;2022-10-31T19:59:17;15.40;83.70
35593;DHT22;64447;52.140;5.602;2022-10-31T20:01:43;15.40;83.50
35593;DHT22;64447;52.140;5.602;2022-10-31T20:04:09;15.50;83.10
35593;DHT22;64447;52.140;5.602;2022-10-31T20:06:39;15.50;82.70
35593;DHT22;64447;52.140;5.602;2022-10-31T20:12:26;15.50;82.60
35593;DHT22;64447;52.140;5.602;2022-10-31T20:14:52;15.40;82.70
35593;DHT22;64447;52.140;5.602;2022-10-31T20:17:17;15.40;82.80
35593;DHT22;64447;52.140;5.602;2022-10-31T20:19:43;15.40;82.80
35593;DHT22;64447;52.140;5.602;2022-10-31T20:22:09;15.40;82.70
35593;DHT22;64447;52.140;5.602;2022-10-31T20:27:57;15.40;82.20
35593;DHT22;64447;52.140;5.602;2022-10-31T20:30:22;15.30;82.20
35593;DHT22;64447;52.140;5.602;2022-10-31T20:32:48;15.40;82.10
35593;DHT22;64447;52.140;5.602;2022-10-31T20:35:13;15.40;81.60
35593;DHT22;64447;52.140;5.602;2022-10-31T20:37:39;15.50;81.20
35593;DHT22;64447;52.140;5.602;2022-10-31T20:40:05;15.40;81.10
35593;DHT22;64447;52.140;5.602;2022-10-31T20:42:31;15.60;80.80
35593;DHT22;64447;52.140;5.602;2022-10-31T20:44:56;15.60;81.00
35593;DHT22;64447;52.140;5.602;2022-10-31T20:47:22;15.60;80.40
35593;DHT22;64447;52.140;5.602;2022-10-31T20:49:48;15.40;80.90
35593;DHT22;64447;52.140;5.602;2022-10-31T20:52:13;15.50;80.60
35593;DHT22;64447;52.140;5.602;2022-10-31T20:58:01;15.50;79.90